Latest Coastal Weather Observations for St Helens

IDT60701

Issued at 2:12 pm EDT Thursday 12 December 2019 (issued every 10 minutes, with the page automatically refreshed every 10 minutes)

About coastal observations | Map of coastal stations | Coastal observations for TAS | Marine services | Other Formats
Station Details ID: 092120 Name: ST HELENS AERODROME Lat: -41.34 Lon: 148.28 Height: 48.0 m
Data from the previous 72 hours. | See also: Recent months at St Helens
Date/Time
EDT
Wind Sea
Height
m
Swell Vis
km
Cloud Weather Temp
°C
Press
hPa
Rain since
9am
mm
Dir  Spd
kts
Gust
kts
Height
m
Period
s
Dir
12/02:00pm ESE 9 20 - - - - 10 Partly cloudy - 17.2 1010.0 0.0
12/01:30pm SE 10 18 - - - - 10 Partly cloudy - 16.6 1009.9 0.0
12/01:00pm SSE 11 20 - - - - 10 Partly cloudy - 17.6 1009.6 0.0
12/12:30pm SW 7 11 - - - - 10 Partly cloudy - 20.0 1009.3 0.0
12/12:00pm SSW 9 16 - - - - 10 Mostly cloudy - 20.6 1009.1 0.0
12/11:30am ESE 6 12 - - - - 10 Cloudy - 18.2 1009.1 0.0
12/11:00am SSE 7 13 - - - - 10 Partly cloudy - 18.8 1009.0 0.0
12/10:30am SW 5 11 - - - - 10 Partly cloudy - 18.4 1008.9 0.0
12/10:00am NW 9 15 - - - - 10 Partly cloudy - 17.4 1009.2 0.0
12/09:30am W 6 10 - - - - 10 - - 18.1 1009.1 0.0
12/09:00am W 7 12 - - - - 10 - - 17.1 1009.5 0.0
12/08:30am WNW 9 15 - - - - 10 - - 15.8 1009.3 0.0
12/08:00am WNW 7 13 - - - - 10 - - 14.7 1009.4 0.0
12/07:30am W 7 10 - - - - 10 - - 14.5 1009.5 0.0
12/07:00am W 7 11 - - - - 10 - - 14.3 1009.5 0.0
12/06:30am WNW 8 15 - - - - 10 - - 13.6 1009.6 0.0
12/06:00am WNW 7 11 - - - - 10 - - 13.4 1009.5 0.0
12/05:30am WNW 10 19 - - - - 10 - - 13.6 1009.2 0.0
12/05:00am NW 5 8 - - - - 10 - - 12.6 1009.3 0.0
12/04:30am WNW 6 10 - - - - 10 - - 13.2 1009.7 0.0
12/04:00am NNW 7 10 - - - - 10 Partly cloudy - 13.2 1010.0 0.0
12/03:30am WNW 7 12 - - - - 10 Cloudy - 13.8 1010.4 0.0
12/03:00am WNW 6 10 - - - - 10 Cloudy - 13.9 1011.1 0.0
12/02:30am NNW 1 5 - - - - 10 Cloudy - 13.8 1011.8 0.0
12/02:00am WNW 5 7 - - - - 10 - - 13.6 1012.0 0.0
12/01:30am WNW 6 11 - - - - 10 - - 13.8 1012.3 0.0
12/01:00am WNW 7 13 - - - - 10 - - 14.2 1012.9 0.0
12/12:30am W 5 12 - - - - 10 Partly cloudy - 14.5 1013.2 0.0
12/12:00am WSW 5 10 - - - - 10 Partly cloudy - 14.9 1013.3 0.0
 
Date/Time
EDT
Wind Sea
Height
m
Swell Vis
km
Cloud Weather Temp
°C
Press
hPa
Rain since
9am
mm
Dir  Spd
kts
Gust
kts
Height
m
Period
s
Dir
11/11:30pm WNW 6 9 - - - - 10 Partly cloudy - 15.1 1013.5 0.0
11/11:00pm NW 5 7 - - - - 10 Partly cloudy - 15.5 1014.0 0.0
11/10:30pm NW 6 9 - - - - 10 Partly cloudy - 15.9 1014.3 0.0
11/10:00pm W 7 14 - - - - 10 Cloudy - 16.2 1014.2 0.0
11/09:30pm W 7 14 - - - - 10 Cloudy - 16.4 1014.2 0.0
11/09:00pm WNW 8 14 - - - - 10 Cloudy - 16.9 1014.0 0.0
11/08:30pm WNW 8 12 - - - - 10 Partly cloudy - 17.4 1014.1 0.0
11/08:00pm WNW 8 14 - - - - 10 Partly cloudy - 17.9 1014.0 0.0
11/07:30pm WNW 11 19 - - - - 10 Cloudy - 18.3 1013.9 0.0
11/07:00pm WNW 9 17 - - - - 10 Partly cloudy - 19.0 1013.7 0.0
11/06:30pm WNW 11 18 - - - - 10 Cloudy - 19.9 1013.4 0.0
11/06:00pm WSW 8 16 - - - - 10 Mostly cloudy - 19.9 1013.3 0.0
11/05:30pm W 7 15 - - - - 10 Partly cloudy - 20.6 1013.1 0.0
11/05:00pm NNW 8 15 - - - - 10 Partly cloudy - 22.1 1013.4 0.0
11/04:30pm NNW 9 16 - - - - 10 - - 22.0 1013.6 0.0
11/04:00pm WNW 7 14 - - - - 10 - - 22.6 1013.8 0.0
11/03:30pm NW 8 15 - - - - 10 Partly cloudy - 23.0 1014.3 0.0
11/03:00pm N 9 14 - - - - 10 Cloudy - 20.8 1014.9 0.0
11/02:30pm NNE 8 12 - - - - 10 Partly cloudy - 22.3 1015.1 0.0
11/02:00pm NNE 11 15 - - - - 10 - - 20.4 1015.5 0.0
11/01:30pm NE 12 16 - - - - 10 Partly cloudy - 20.0 1015.8 0.0
11/01:00pm NE 11 14 - - - - 10 - - 19.1 1016.5 0.0
11/12:30pm NE 13 18 - - - - 10 - - 17.7 1016.8 0.0
11/12:00pm NNE 11 15 - - - - 10 - - 16.9 1017.2 0.0
11/11:30am NNE 10 15 - - - - 10 - - 17.2 1017.4 0.0
11/11:00am NNE 11 15 - - - - 10 - - 16.8 1017.6 0.0
11/10:30am NNE 7 11 - - - - 10 - - 17.0 1017.7 0.0
11/10:00am NNE 8 11 - - - - 10 - - 16.3 1018.0 0.0
11/09:30am NNE 6 8 - - - - 10 - - 16.3 1018.3 0.0
11/09:00am NNW 5 8 - - - - 25 Mostly cloudy Fine 16.5 1018.6 0.0
11/08:30am N 4 6 - - - - 10 - - 15.5 1018.7 0.0
11/08:00am NW 4 6 - - - - 10 - - 14.4 1018.8 0.0
11/07:30am WNW 4 6 - - - - 10 Partly cloudy - 13.3 1018.9 0.0
11/07:00am W 2 4 - - - - 10 Cloudy - 12.6 1018.9 0.0
11/06:30am WNW 3 5 - - - - 10 Cloudy - 12.3 1018.9 0.0
11/06:00am WNW 3 5 - - - - 10 Cloudy - 12.1 1019.0 0.0
11/05:30am NW 3 5 - - - - 10 Cloudy - 12.1 1018.8 0.0
11/05:00am WNW 2 5 - - - - 10 Cloudy - 12.1 1018.8 0.0
11/04:30am WNW 3 4 - - - - 10 Partly cloudy - 12.1 1018.8 0.0
11/04:00am W 1 4 - - - - 10 Cloudy - 12.1 1018.9 0.0
11/03:30am WSW 1 5 - - - - 10 Cloudy - 12.1 1019.1 0.0
11/03:00am CALM 0 2 - - - - 10 Cloudy - 12.1 1019.4 0.0
11/02:30am CALM 0 0 - - - - 10 Partly cloudy - 12.1 1019.5 0.0
11/02:00am W 1 3 - - - - 10 Cloudy - 12.4 1019.8 0.0
11/01:30am NE 2 3 - - - - 10 Cloudy - 12.6 1020.1 0.0
11/01:00am CALM 0 0 - - - - 10 Cloudy - 12.3 1020.2 0.0
11/12:30am CALM 0 0 - - - - 10 Cloudy - 12.2 1020.5 0.0
11/12:00am CALM 0 0 - - - - 10 Mostly cloudy - 12.4 1020.7 0.0
 
Date/Time
EDT
Wind Sea
Height
m
Swell Vis
km
Cloud Weather Temp
°C
Press
hPa
Rain since
9am
mm
Dir  Spd
kts
Gust
kts
Height
m
Period
s
Dir
10/11:30pm CALM 0 0 - - - - 10 Cloudy - 12.5 1020.7 0.0
10/11:00pm CALM 0 3 - - - - 10 Cloudy - 12.5 1020.6 0.0
10/10:30pm CALM 0 0 - - - - 10 Cloudy - 12.6 1020.8 0.0
10/10:00pm CALM 0 0 - - - - 10 Cloudy - 12.6 1020.8 0.0
10/09:30pm ESE 1 4 - - - - 10 Cloudy - 12.7 1020.5 0.0
10/09:00pm SE 2 4 - - - - 10 Cloudy - 12.7 1020.3 0.0
10/08:30pm SE 4 6 - - - - 10 Cloudy - 12.9 1020.0 0.0
10/08:00pm SSE 3 6 - - - - 10 Cloudy - 13.0 1019.6 0.0
10/07:30pm SE 5 7 - - - - 10 Cloudy - 13.1 1019.3 0.0
10/07:00pm SE 5 8 - - - - 10 Cloudy - 13.2 1019.1 0.0
10/06:30pm SE 4 9 - - - - 10 Cloudy - 13.5 1018.8 0.0
10/06:00pm SE 6 11 - - - - 10 Cloudy - 13.5 1018.6 0.0
10/05:30pm SE 6 11 - - - - 10 Cloudy - 13.7 1018.3 0.0
10/05:00pm SE 6 11 - - - - 10 Cloudy - 13.7 1018.3 0.0
10/04:30pm SE 6 13 - - - - 10 Cloudy - 13.7 1018.1 0.0
10/04:00pm SE 6 14 - - - - 10 Cloudy - 13.6 1017.9 0.0
10/03:30pm SSE 6 12 - - - - 10 Cloudy - 14.1 1017.8 0.0
10/03:00pm SE 7 14 - - - - 10 Cloudy - 13.7 1017.8 0.0
10/02:30pm SE 7 14 - - - - 10 Cloudy - 13.7 1017.4 0.0
10/02:00pm SSE 6 11 - - - - 10 Cloudy - 13.7 1017.3 0.0
10/01:30pm SSE 8 16 - - - - 10 Cloudy - 13.6 1017.3 0.0
10/01:00pm SE 8 16 - - - - 10 Cloudy - 14.0 1017.1 0.0
10/12:30pm SSE 9 17 - - - - 10 Cloudy - 13.7 1017.0 0.0
10/12:00pm SSE 10 18 - - - - 10 Cloudy - 13.8 1017.0 0.0
10/11:56am SSE 9 17 - - - - 10 Cloudy - 13.9 1016.8 0.0
10/11:30am SSE 9 16 - - - - 10 Cloudy - 13.8 1016.5 0.0
10/11:00am SSE 10 17 - - - - 10 Cloudy - 13.4 1016.2 0.0
10/10:30am SSE 10 17 - - - - 10 Cloudy - 13.2 1015.9 0.0
10/10:00am SSE 9 15 - - - - 10 Cloudy - 12.9 1015.8 0.0
10/09:30am SSE 9 16 - - - - 8 Cloudy - 12.5 1015.6 0.0
10/09:22am SSE 9 16 - - - - 8 Cloudy - 12.5 1015.5 0.0
10/09:00am SSE 7 15 - - - - 2 Cloudy Drizzle 13.0 1015.2 0.0
10/08:55am SSE 8 15 - - - - 4 Cloudy - 13.1 1015.1 0.0
10/08:30am SSE 7 15 - - - - 10 Cloudy - 13.9 1014.4 0.0
10/08:00am SSE 7 11 - - - - 10 Partly cloudy - 13.9 1013.9 0.0
10/07:30am SSE 7 14 - - - - 10 Partly cloudy - 13.7 1013.5 0.0
10/07:00am SSE 10 18 - - - - 10 Cloudy - 13.7 1012.9 0.0
10/06:30am SSE 8 15 - - - - 10 Cloudy - 13.7 1012.5 0.0
10/06:00am SSE 7 11 - - - - 10 Cloudy - 13.5 1012.7 0.0
10/05:30am SSE 7 13 - - - - 10 Partly cloudy - 13.5 1012.6 0.0
10/05:00am SSE 9 16 - - - - 8 Partly cloudy - 13.5 1012.6 0.0
10/04:30am S 11 18 - - - - 9 Cloudy - 13.4 1011.8 0.0
10/04:00am S 13 23 - - - - 9 Cloudy - 13.5 1011.0 0.0
10/03:30am S 11 19 - - - - 9 Partly cloudy - 13.7 1010.8 0.0
10/03:00am S 10 16 - - - - 9 Mostly clear - 14.0 1011.3 0.0
10/02:30am S 13 22 - - - - 10 - - 14.5 1010.5 0.0
10/02:04am S 7 22 - - - - 10 - - 16.0 1010.4 0.0
10/02:00am S 3 9 - - - - 10 - - 17.2 1010.4 0.0
10/01:30am NNE 4 6 - - - - 10 - - 18.0 1010.1 0.0
10/01:00am N 5 6 - - - - 10 - - 19.1 1009.8 0.0
10/12:30am NNW 7 10 - - - - 10 - - 20.1 1009.8 0.0
10/12:00am WNW 7 12 - - - - 10 - - 20.4 1010.2 0.0
 
Date/Time
EDT
Wind Sea
Height
m
Swell Vis
km
Cloud Weather Temp
°C
Press
hPa
Rain since
9am
mm
Dir  Spd
kts
Gust
kts
Height
m
Period
s
Dir
09/11:30pm WNW 6 10 - - - - 10 - - 19.1 1010.0 0.0
09/11:00pm NW 7 9 - - - - 10 - - 19.1 1009.8 0.0
09/10:30pm N 7 10 - - - - 10 - - 18.9 1010.1 0.0
09/10:00pm NNE 5 8 - - - - 10 - - 18.2 1010.2 0.0
09/09:30pm NNE 8 11 - - - - 10 - - 17.9 1009.6 0.0
09/09:00pm N 8 13 - - - - 10 - - 18.9 1010.1 0.0
09/08:30pm N 9 15 - - - - 10 - - 18.4 1010.2 0.0
09/08:00pm N 9 14 - - - - 10 - - 18.8 1009.8 0.0
09/07:30pm N 10 15 - - - - 10 - - 18.4 1009.9 0.0
09/07:00pm N 10 16 - - - - 10 - - 17.0 1009.9 0.0
09/06:30pm NNE 12 16 - - - - 10 - - 16.6 1009.8 0.0
09/06:00pm NNE 9 14 - - - - 10 - - 16.3 1009.4 0.0
09/05:30pm NNE 12 18 - - - - 10 Partly cloudy - 16.2 1009.6 0.0
09/05:00pm NNE 11 16 - - - - 10 - - 17.0 1011.5 0.0
09/04:30pm NNE 11 18 - - - - 10 Partly cloudy - 17.3 1012.0 0.0
09/04:20pm NNE 13 19 - - - - 10 Partly cloudy - 17.7 1011.7 0.0
09/04:00pm NNE 7 14 - - - - 10 Partly cloudy - 18.2 1012.1 0.0
09/03:30pm NNE 10 18 - - - - 10 Cloudy - 17.1 1012.6 0.0
09/03:00pm NNE 11 19 - - - - 10 Partly cloudy - 16.8 1013.4 0.0
09/02:56pm NNE 12 19 - - - - 10 Partly cloudy - 16.8 1013.4 0.0
09/02:30pm NNE 14 20 - - - - 10 - - 17.3 1013.6 0.0

Other formats

Comma delimited format used in spreadsheet applications
http://www.bom.gov.au/fwo/IDT60701/IDT60701.95981.axf

JavaScript Object Notation format (JSON) in row-major order
http://www.bom.gov.au/fwo/IDT60701/IDT60701.95981.json

Data quality

Most of these data are generated automatically and are frequently updated. Quality checks on data are not normally performed. It is possible for incorrect values to appear. Refer to information at About Latest Weather Observations and please check the disclaimer before using these data.